Time;durP1;ratioP1;P1;durP2;ratioP2;P2;SDS_P1;SDS_P2;PMS_P1;PMS_P2;Temp;Humidity;BMP_temperature;BMP_pressure;BME280_temperature;BME280_humidity;BME280_pressure;Samples;Min_cycle;Max_cycle;Signal;HPM_P1;HPM_P2
2023/05/01 00:01:33;;;;;;;2.50;2.30;;;16.30;67.50;;;;;;5050195;28;20476;-83
2023/05/01 00:04:07;;;;;;;3.63;3.33;;;16.30;67.70;;;;;;5051604;28;20464;-83
2023/05/01 00:06:37;;;;;;;2.27;2.07;;;16.30;68.20;;;;;;5054255;28;20469;-82
2023/05/01 00:09:12;;;;;;;2.73;2.33;;;16.30;68.30;;;;;;5044794;28;20500;-83
2023/05/01 00:11:48;;;;;;;2.63;2.20;;;16.20;67.50;;;;;;5049856;28;20534;-83
2023/05/01 00:14:21;;;;;;;4.70;2.80;;;16.30;67.20;;;;;;5044576;28;20781;-83
2023/05/01 00:16:57;;;;;;;2.17;2.07;;;16.30;66.00;;;;;;5045439;28;20459;-83
2023/05/01 00:19:34;;;;;;;2.37;2.27;;;16.40;65.70;;;;;;5049423;28;20476;-81
2023/05/01 00:22:04;;;;;;;3.00;2.73;;;16.60;63.40;;;;;;5048333;28;20528;-81
2023/05/01 00:24:39;;;;;;;2.30;2.10;;;16.40;63.40;;;;;;5048945;28;20440;-82
2023/05/01 00:30:05;;;;;;;2.90;2.27;;;16.50;63.10;;;;;;5046608;28;20476;-84
2023/05/01 00:32:34;;;;;;;1.80;1.70;;;16.40;62.60;;;;;;5044283;28;20830;-84
2023/05/01 00:35:07;;;;;;;2.67;2.30;;;16.30;62.50;;;;;;5046066;28;20921;-82
2023/05/01 00:37:44;;;;;;;7.17;5.20;;;16.20;62.70;;;;;;5051106;28;20444;-83
2023/05/01 00:40:14;;;;;;;12.70;8.40;;;15.90;63.30;;;;;;5048934;28;20477;-83
2023/05/01 00:42:47;;;;;;;2.60;2.40;;;15.90;64.10;;;;;;5049587;28;20522;-81
2023/05/01 00:45:21;;;;;;;2.80;2.60;;;15.80;64.80;;;;;;5050387;28;20444;-81
2023/05/01 00:47:48;;;;;;;14.00;10.13;;;15.70;66.80;;;;;;5051290;28;20452;-82
2023/05/01 00:50:26;;;;;;;3.77;3.10;;;15.70;66.80;;;;;;5046904;28;20480;-82
2023/05/01 00:53:07;;;;;;;8.03;5.53;;;15.90;66.60;;;;;;5051808;28;20478;-82
2023/05/01 00:55:46;;;;;;;2.50;2.30;;;15.70;66.10;;;;;;5050547;28;20471;-83
2023/05/01 00:58:19;;;;;;;2.57;2.10;;;15.70;65.70;;;;;;5049675;28;20543;-83
2023/05/01 01:00:51;;;;;;;5.10;3.87;;;15.90;65.50;;;;;;5045902;28;20971;-83
2023/05/01 01:03:30;;;;;;;2.00;1.80;;;15.70;65.00;;;;;;5046132;28;20448;-82
2023/05/01 01:06:09;;;;;;;2.83;2.50;;;15.60;65.50;;;;;;5048938;28;20563;-82
2023/05/01 01:09:03;;;;;;;4.93;2.90;;;15.70;64.90;;;;;;5056253;28;20490;-82
2023/05/01 01:11:58;;;;;;;3.07;2.70;;;15.80;64.80;;;;;;5058010;28;20507;-82
2023/05/01 01:15:05;;;;;;;2.70;2.50;;;15.70;64.90;;;;;;5055546;28;20459;-81
2023/05/01 01:17:43;;;;;;;4.80;4.27;;;15.80;64.80;;;;;;5051855;28;20546;-82
2023/05/01 01:20:28;;;;;;;3.70;2.70;;;15.80;64.00;;;;;;5051685;28;20558;-82
2023/05/01 01:23:23;;;;;;;3.00;2.67;;;15.70;65.40;;;;;;5047716;28;20462;-82
2023/05/01 01:26:32;;;;;;;2.50;2.40;;;15.80;68.00;;;;;;5048510;28;20479;-82
2023/05/01 01:29:23;;;;;;;4.43;3.57;;;15.70;68.90;;;;;;5049794;28;21077;-82
2023/05/01 01:32:26;;;;;;;2.90;2.60;;;15.80;68.00;;;;;;5062234;28;20444;-83
2023/05/01 01:35:05;;;;;;;2.83;2.63;;;15.60;67.90;;;;;;5050991;28;20936;-84
2023/05/01 01:37:56;;;;;;;2.43;2.23;;;15.70;68.40;;;;;;5052238;28;20448;-83
2023/05/01 01:40:54;;;;;;;2.80;2.60;;;15.70;66.90;;;;;;5051862;28;20519;-84
2023/05/01 01:43:26;;;;;;;3.97;2.70;;;15.70;66.50;;;;;;5048071;28;21099;-84
2023/05/01 01:46:04;;;;;;;3.17;2.47;;;15.60;66.30;;;;;;5052106;28;20541;-84
2023/05/01 01:48:45;;;;;;;2.57;2.37;;;15.70;66.10;;;;;;5040612;28;20456;-82
2023/05/01 01:51:25;;;;;;;2.53;2.33;;;15.70;65.80;;;;;;5049313;28;20559;-82
2023/05/01 01:53:55;;;;;;;2.17;1.97;;;15.70;66.00;;;;;;5048980;28;20466;-83
2023/05/01 01:56:29;;;;;;;3.00;2.67;;;15.60;66.30;;;;;;5058792;28;20463;-81
2023/05/01 01:59:00;;;;;;;2.27;2.17;;;15.70;66.50;;;;;;5054956;28;20508;-83
2023/05/01 02:01:38;;;;;;;2.73;2.57;;;15.60;65.70;;;;;;5050498;28;20460;-81
2023/05/01 02:04:08;;;;;;;3.40;2.40;;;15.40;66.50;;;;;;5049471;28;20459;-83
2023/05/01 02:06:37;;;;;;;2.50;2.20;;;15.50;66.60;;;;;;5047315;28;20489;-82
2023/05/01 02:09:18;;;;;;;2.27;2.07;;;15.50;66.40;;;;;;5046653;28;20468;-83
2023/05/01 02:11:52;;;;;;;4.17;2.23;;;15.50;66.60;;;;;;5051819;28;20445;-83
2023/05/01 02:14:26;;;;;;;2.40;2.20;;;15.40;67.10;;;;;;5064842;28;20445;-83
2023/05/01 02:17:04;;;;;;;2.60;2.40;;;15.50;67.20;;;;;;5054167;28;20499;-81
2023/05/01 02:19:39;;;;;;;2.93;2.70;;;15.50;67.10;;;;;;5049085;28;20862;-83
2023/05/01 02:22:16;;;;;;;2.40;2.20;;;15.40;67.10;;;;;;5047895;28;20932;-83
2023/05/01 02:24:44;;;;;;;2.83;2.10;;;15.50;66.60;;;;;;5049008;28;20479;-82
2023/05/01 02:27:36;;;;;;;2.70;2.10;;;15.50;65.80;;;;;;5051532;28;20484;-83
2023/05/01 02:30:06;;;;;;;2.07;1.97;;;15.60;65.90;;;;;;5043862;28;20473;-83
2023/05/01 02:32:47;;;;;;;2.10;1.90;;;15.50;65.70;;;;;;5048441;28;20452;-81
2023/05/01 02:35:20;;;;;;;3.07;2.40;;;15.30;66.40;;;;;;5065060;28;20447;-83
2023/05/01 02:37:56;;;;;;;3.23;2.30;;;15.20;66.90;;;;;;5056621;28;20548;-83
2023/05/01 02:40:26;;;;;;;2.53;2.33;;;15.10;67.20;;;;;;5056627;28;20483;-81
2023/05/01 02:43:10;;;;;;;2.30;2.20;;;15.20;67.80;;;;;;5057373;28;20452;-83
2023/05/01 02:45:42;;;;;;;2.50;2.30;;;15.40;67.20;;;;;;5051886;28;20472;-83
2023/05/01 02:48:16;;;;;;;2.33;2.13;;;15.50;66.90;;;;;;5065269;28;20535;-84
2023/05/01 02:51:02;;;;;;;2.40;2.20;;;15.50;66.70;;;;;;5060808;28;21056;-82
2023/05/01 02:53:35;;;;;;;2.90;2.40;;;15.40;67.70;;;;;;5056423;28;20453;-83
2023/05/01 02:56:14;;;;;;;3.60;2.43;;;15.40;68.20;;;;;;5038261;28;20472;-82
2023/05/01 02:58:45;;;;;;;2.33;2.13;;;15.40;68.30;;;;;;5061669;28;20641;-83
2023/05/01 03:01:15;;;;;;;2.33;2.13;;;15.30;68.70;;;;;;5084978;28;20432;-82
2023/05/01 03:03:44;;;;;;;2.43;2.27;;;15.40;68.90;;;;;;5075934;28;20440;-82
2023/05/01 03:06:18;;;;;;;1.97;1.87;;;15.30;69.30;;;;;;5075681;28;20472;-81
2023/05/01 03:08:48;;;;;;;2.77;2.57;;;15.30;69.30;;;;;;5073520;28;20495;-82
2023/05/01 03:11:21;;;;;;;2.40;2.20;;;15.20;69.50;;;;;;5072365;28;20432;-82
2023/05/01 03:13:50;;;;;;;2.20;1.90;;;15.30;69.80;;;;;;5073189;28;20433;-81
2023/05/01 03:16:22;;;;;;;3.20;2.10;;;15.20;70.00;;;;;;5063256;28;20458;-83
2023/05/01 03:19:04;;;;;;;2.20;2.10;;;15.40;70.10;;;;;;5055813;28;20482;-82
2023/05/01 03:21:36;;;;;;;2.63;2.43;;;15.10;69.40;;;;;;5064294;28;20456;-82
2023/05/01 03:24:06;;;;;;;2.73;2.20;;;15.10;69.30;;;;;;5070389;28;20440;-83
2023/05/01 03:26:37;;;;;;;3.17;2.07;;;15.20;69.10;;;;;;5060010;28;20487;-82
2023/05/01 03:29:15;;;;;;;3.30;2.63;;;15.20;68.80;;;;;;5046239;28;20478;-82
2023/05/01 03:31:46;;;;;;;2.57;2.37;;;15.10;69.40;;;;;;5055945;28;20452;-82
2023/05/01 03:34:16;;;;;;;2.10;2.00;;;15.10;69.80;;;;;;5057426;28;20510;-83
2023/05/01 03:36:49;;;;;;;3.70;3.03;;;15.10;69.30;;;;;;5056083;28;20444;-83
2023/05/01 03:39:23;;;;;;;2.30;2.03;;;15.10;69.60;;;;;;5061872;28;20463;-81
2023/05/01 03:41:54;;;;;;;2.83;2.63;;;14.90;71.00;;;;;;5070736;28;20519;-83
2023/05/01 03:44:24;;;;;;;3.57;2.47;;;14.90;71.50;;;;;;5067410;28;20445;-81
2023/05/01 03:46:56;;;;;;;4.37;2.30;;;15.00;71.30;;;;;;5060721;28;20468;-80
2023/05/01 03:49:26;;;;;;;3.00;2.47;;;15.00;70.90;;;;;;5054983;28;20467;-81
2023/05/01 03:52:00;;;;;;;2.40;2.20;;;14.90;70.50;;;;;;5063344;28;20478;-80
2023/05/01 03:54:38;;;;;;;2.87;2.67;;;14.70;71.20;;;;;;5065661;28;20449;-83
2023/05/01 03:57:23;;;;;;;4.30;2.83;;;14.80;72.10;;;;;;5066707;28;20487;-81
2023/05/01 04:00:10;;;;;;;2.50;2.30;;;14.80;72.70;;;;;;5078010;28;20444;-82
2023/05/01 04:02:41;;;;;;;3.37;3.07;;;14.80;73.60;;;;;;5064336;28;20460;-81
2023/05/01 04:05:22;;;;;;;3.57;2.90;;;14.80;73.00;;;;;;5063662;28;20420;-83
2023/05/01 04:08:04;;;;;;;2.73;2.53;;;14.60;73.00;;;;;;5062577;28;20456;-82
2023/05/01 04:10:39;;;;;;;3.50;2.57;;;14.60;74.10;;;;;;5062733;28;20461;-82
2023/05/01 04:13:37;;;;;;;3.27;2.87;;;14.60;74.10;;;;;;5067693;28;20448;-81
2023/05/01 04:19:04;;;;;;;2.57;2.30;;;14.50;74.30;;;;;;5056739;28;20476;-83
2023/05/01 04:21:34;;;;;;;2.43;2.23;;;14.30;75.00;;;;;;5059509;28;20448;-83
2023/05/01 04:24:15;;;;;;;2.30;2.13;;;14.30;75.20;;;;;;5056951;28;20453;-83
2023/05/01 04:26:57;;;;;;;2.80;2.60;;;14.30;75.40;;;;;;5053896;28;20853;-83
2023/05/01 04:29:31;;;;;;;2.80;2.50;;;14.30;75.20;;;;;;5049423;28;20494;-82
2023/05/01 04:32:22;;;;;;;2.60;2.40;;;14.40;75.70;;;;;;5045054;28;20456;-82
2023/05/01 04:38:48;;;;;;;3.80;2.50;;;14.70;75.10;;;;;;5047613;28;20476;-83
2023/05/01 04:41:29;;;;;;;2.90;2.60;;;14.70;74.30;;;;;;5059620;28;20464;-82
2023/05/01 04:44:09;;;;;;;2.60;2.40;;;14.60;75.40;;;;;;5053908;28;20519;-81
2023/05/01 04:46:52;;;;;;;2.13;1.93;;;14.70;75.10;;;;;;5052672;28;20861;-81
2023/05/01 04:49:34;;;;;;;2.67;2.27;;;14.70;74.70;;;;;;5058067;28;20498;-81
2023/05/01 04:52:06;;;;;;;2.77;2.00;;;14.60;75.10;;;;;;5055053;28;20445;-82
2023/05/01 04:54:41;;;;;;;2.50;2.30;;;14.70;75.20;;;;;;5045769;28;20461;-82
2023/05/01 04:57:27;;;;;;;2.80;2.60;;;14.60;74.40;;;;;;5045935;28;20460;-81
2023/05/01 05:00:00;;;;;;;2.87;2.63;;;14.50;75.10;;;;;;5047408;28;20494;-81
2023/05/01 05:02:36;;;;;;;3.17;2.90;;;14.40;75.70;;;;;;5051084;28;20466;-82
2023/05/01 05:05:06;;;;;;;3.00;2.23;;;14.40;76.20;;;;;;5053443;28;20448;-81
2023/05/01 05:07:43;;;;;;;2.90;2.60;;;14.30;76.80;;;;;;5060561;28;20475;-83
2023/05/01 05:10:23;;;;;;;;;;;;;;;;;;;;;
2023/05/01 05:12:58;;;;;;;2.60;2.40;;;14.60;77.00;;;;;;5069107;28;20528;-82
2023/05/01 05:15:37;;;;;;;3.00;2.77;;;14.80;75.80;;;;;;5071350;28;20467;-82
2023/05/01 05:18:11;;;;;;;2.40;2.20;;;14.80;76.10;;;;;;5071044;28;20532;-82
2023/05/01 05:20:44;;;;;;;2.70;2.50;;;14.90;75.70;;;;;;5071279;28;20488;-82
2023/05/01 05:23:22;;;;;;;2.23;2.03;;;14.60;75.10;;;;;;5059002;28;20978;-82
2023/05/01 05:26:04;;;;;;;2.60;2.40;;;14.80;75.70;;;;;;5049884;28;20517;-82
2023/05/01 05:28:40;;;;;;;2.60;2.17;;;14.70;75.30;;;;;;5040200;28;20488;-82
2023/05/01 05:31:22;;;;;;;3.10;2.57;;;14.70;75.00;;;;;;5052028;28;20460;-81
2023/05/01 05:34:03;;;;;;;2.70;2.33;;;14.60;75.60;;;;;;5049933;28;20460;-81
2023/05/01 05:36:45;;;;;;;2.20;2.00;;;14.60;74.80;;;;;;5043049;28;20451;-82
2023/05/01 05:39:33;;;;;;;3.20;2.93;;;14.40;75.00;;;;;;5042348;28;20563;-82
2023/05/01 05:42:02;;;;;;;2.60;2.40;;;14.40;75.00;;;;;;5051381;28;20463;-82
2023/05/01 05:44:31;;;;;;;2.57;2.37;;;14.30;75.60;;;;;;5049020;28;20514;-83
2023/05/01 05:47:10;;;;;;;2.80;2.40;;;14.60;76.10;;;;;;5048263;28;21054;-83
2023/05/01 05:49:43;;;;;;;2.97;2.70;;;14.80;75.40;;;;;;5051974;28;20552;-83
2023/05/01 05:52:25;;;;;;;2.70;2.50;;;14.90;74.50;;;;;;5044216;28;20448;-83
2023/05/01 05:55:04;;;;;;;2.70;2.30;;;14.90;74.70;;;;;;5060524;28;20491;-83
2023/05/01 05:57:45;;;;;;;3.43;3.13;;;15.00;73.90;;;;;;5058575;28;20462;-83
2023/05/01 06:00:22;;;;;;;4.27;2.80;;;14.80;74.30;;;;;;5052279;28;20565;-82
2023/05/01 06:03:28;;;;;;;4.00;2.53;;;14.90;74.80;;;;;;5051448;28;20492;-83
2023/05/01 06:06:19;;;;;;;2.70;2.50;;;15.20;74.30;;;;;;5048652;28;20847;-82
2023/05/01 06:08:55;;;;;;;2.27;2.10;;;15.20;73.60;;;;;;5052215;28;20486;-83
2023/05/01 06:11:27;;;;;;;2.60;2.40;;;15.10;73.00;;;;;;5055673;28;20551;-83
2023/05/01 06:14:02;;;;;;;2.77;2.47;;;15.10;73.30;;;;;;5049400;28;20464;-81
2023/05/01 06:17:17;;;;;;;2.70;2.50;;;15.10;73.70;;;;;;5054051;28;20456;-83
2023/05/01 06:19:57;;;;;;;2.80;2.60;;;14.90;73.20;;;;;;5050352;28;21097;-83
2023/05/01 06:22:30;;;;;;;2.90;2.23;;;14.90;74.40;;;;;;5048241;28;20466;-81
2023/05/01 06:25:31;;;;;;;;;;;;;;;;;;;;;
2023/05/01 06:28:02;;;;;;;2.07;1.97;;;14.90;74.20;;;;;;5046375;28;20530;-82
2023/05/01 06:30:43;;;;;;;2.33;2.13;;;15.00;74.00;;;;;;5067206;28;20480;-83
2023/05/01 06:33:15;;;;;;;2.13;2.03;;;15.20;73.90;;;;;;5076919;28;20451;-84
2023/05/01 06:36:01;;;;;;;2.47;2.27;;;15.00;73.00;;;;;;5066608;28;20448;-83
2023/05/01 06:38:48;;;;;;;2.57;2.37;;;15.30;73.40;;;;;;5071745;28;20444;-82
2023/05/01 06:41:34;;;;;;;2.20;2.00;;;15.20;72.90;;;;;;5071905;28;20479;-82
2023/05/01 06:44:36;;;;;;;2.07;1.97;;;15.20;73.40;;;;;;5075846;28;20444;-82
2023/05/01 06:47:08;;;;;;;2.07;1.97;;;15.20;73.30;;;;;;5072607;28;20473;-82
2023/05/01 06:49:58;;;;;;;2.80;2.40;;;15.10;73.30;;;;;;5072840;28;20506;-80
2023/05/01 06:52:34;;;;;;;1.90;1.80;;;15.10;73.50;;;;;;5083288;28;20478;-83
2023/05/01 06:55:02;;;;;;;2.20;2.00;;;15.10;74.40;;;;;;5078450;28;20528;-82
2023/05/01 06:57:36;;;;;;;2.07;1.97;;;15.30;74.10;;;;;;5067106;28;20456;-81
2023/05/01 07:00:14;;;;;;;3.80;2.30;;;15.40;73.80;;;;;;5067185;28;20461;-83
2023/05/01 07:03:04;;;;;;;3.40;2.30;;;15.50;74.30;;;;;;5067372;28;20475;-81
2023/05/01 07:05:35;;;;;;;2.47;2.27;;;15.30;72.80;;;;;;5068621;28;20440;-81
2023/05/01 07:08:09;;;;;;;3.20;1.83;;;15.30;73.50;;;;;;5070332;28;20499;-82
2023/05/01 07:10:44;;;;;;;1.70;1.60;;;15.40;73.60;;;;;;5053014;28;20721;-82
2023/05/01 07:13:14;;;;;;;1.83;1.73;;;15.50;72.90;;;;;;5055028;28;20537;-83
2023/05/01 07:15:53;;;;;;;3.00;1.83;;;15.50;72.90;;;;;;5046993;28;20456;-83
2023/05/01 07:18:30;;;;;;;3.20;2.10;;;15.50;73.40;;;;;;5050280;28;20445;-83
2023/05/01 07:21:14;;;;;;;2.00;1.77;;;15.50;72.80;;;;;;5049352;28;20986;-83
2023/05/01 07:23:51;;;;;;;2.10;2.00;;;15.80;72.00;;;;;;5058007;28;20463;-83
2023/05/01 07:26:20;;;;;;;2.87;1.80;;;15.90;71.40;;;;;;5052143;28;20492;-83
2023/05/01 07:28:55;;;;;;;2.07;1.97;;;16.10;71.00;;;;;;5050491;28;20985;-83
2023/05/01 07:31:26;;;;;;;2.53;1.90;;;16.20;69.40;;;;;;5051067;28;20462;-81
2023/05/01 07:33:56;;;;;;;2.43;1.90;;;16.10;69.50;;;;;;5051682;28;20449;-83
2023/05/01 07:36:37;;;;;;;;;;;;;;;;;;;;;
2023/05/01 07:39:17;;;;;;;1.60;1.50;;;16.10;68.00;;;;;;5057790;28;20566;-83
2023/05/01 07:41:51;;;;;;;2.57;1.80;;;16.20;68.60;;;;;;5054709;28;20487;-83
2023/05/01 07:44:30;;;;;;;2.00;1.90;;;15.90;68.30;;;;;;5062490;28;20468;-83
2023/05/01 07:47:13;;;;;;;2.30;2.10;;;16.20;68.00;;;;;;5057546;28;20476;-83
2023/05/01 07:50:15;;;;;;;1.90;1.80;;;16.00;68.50;;;;;;5052339;28;20456;-84
2023/05/01 07:53:00;;;;;;;2.37;1.77;;;16.10;68.60;;;;;;5057132;28;20441;-81
2023/05/01 07:58:43;;;;;;;1.60;1.50;;;16.20;69.30;;;;;;5041455;28;21200;-83
2023/05/01 08:01:27;;;;;;;1.90;1.80;;;16.50;68.70;;;;;;5042522;28;20555;-83
2023/05/01 08:03:57;;;;;;;1.63;1.53;;;16.50;67.90;;;;;;5076555;28;20464;-82
2023/05/01 08:06:46;;;;;;;2.53;2.33;;;16.40;68.00;;;;;;5058412;28;20456;-83
2023/05/01 08:09:37;;;;;;;1.73;1.63;;;16.60;68.50;;;;;;5058764;28;20488;-81
2023/05/01 08:12:26;;;;;;;2.17;1.97;;;16.70;68.20;;;;;;5053019;28;20457;-80
2023/05/01 08:15:06;;;;;;;2.10;1.90;;;16.90;67.80;;;;;;5059334;28;20518;-83
2023/05/01 08:17:43;;;;;;;2.07;1.87;;;16.80;66.60;;;;;;5057068;28;20594;-81
2023/05/01 08:20:17;;;;;;;1.67;1.57;;;16.70;66.60;;;;;;5053917;28;20464;-83
2023/05/01 08:22:55;;;;;;;1.70;1.60;;;16.80;66.70;;;;;;5052735;28;20444;-82
2023/05/01 08:25:38;;;;;;;1.70;1.60;;;16.80;66.90;;;;;;5055149;28;20546;-83
2023/05/01 08:28:08;;;;;;;1.97;1.87;;;17.00;66.50;;;;;;5051079;28;20477;-83
2023/05/01 08:30:41;;;;;;;1.80;1.70;;;17.10;65.70;;;;;;5059337;28;20543;-82
2023/05/01 08:33:35;;;;;;;1.83;1.70;;;17.20;65.40;;;;;;5051690;28;20477;-82
2023/05/01 08:36:11;;;;;;;1.53;1.43;;;17.40;65.10;;;;;;5057269;28;20463;-82
2023/05/01 08:39:02;;;;;;;1.87;1.40;;;17.70;64.00;;;;;;5062850;28;20487;-83
2023/05/01 08:41:54;;;;;;;2.80;1.53;;;17.80;63.20;;;;;;5064077;28;20456;-82
2023/05/01 08:44:40;;;;;;;3.83;1.77;;;17.90;62.10;;;;;;5053210;28;20445;-83
2023/05/01 08:47:19;;;;;;;2.53;1.67;;;17.90;61.20;;;;;;5052872;28;20539;-83
2023/05/01 08:50:23;;;;;;;1.93;1.83;;;17.90;61.10;;;;;;5051902;28;20485;-84
2023/05/01 08:52:57;;;;;;;1.67;1.57;;;18.20;61.60;;;;;;5049352;28;20441;-81
2023/05/01 08:56:17;;;;;;;;;;;;;;;;;;;;;
2023/05/01 08:59:49;;;;;;;2.00;1.80;;;18.70;59.00;;;;;;5046564;28;20481;-82
2023/05/01 09:03:44;;;;;;;;;;;;;;;;;;;;;
2023/05/01 09:10:27;;;;;;;2.70;2.13;;;19.60;58.30;;;;;;4976699;28;20480;-81
2023/05/01 09:13:29;;;;;;;2.03;1.93;;;19.70;56.80;;;;;;4969035;28;20452;-82
2023/05/01 09:23:48;;;;;;;2.50;2.30;;;18.70;58.30;;;;;;4978563;28;20499;-82
2023/05/01 09:26:43;;;;;;;2.17;2.07;;;18.80;58.50;;;;;;4999955;28;20465;-82
2023/05/01 09:30:06;;;;;;;1.97;1.87;;;18.70;58.90;;;;;;5007215;28;20554;-81
2023/05/01 09:32:40;;;;;;;2.00;1.90;;;18.60;59.10;;;;;;4996827;28;20550;-82
2023/05/01 09:35:31;;;;;;;2.30;2.00;;;18.60;59.30;;;;;;4980419;28;20465;-84
2023/05/01 09:41:58;;;;;;;2.47;2.30;;;18.40;59.70;;;;;;5054848;28;20444;-82
2023/05/01 09:45:01;;;;;;;2.33;2.13;;;18.50;59.60;;;;;;5043674;28;20459;-80
2023/05/01 09:47:50;;;;;;;2.30;2.10;;;18.60;59.40;;;;;;5051969;28;20964;-82
2023/05/01 09:50:47;;;;;;;2.60;2.40;;;18.30;59.80;;;;;;5050201;28;20846;-82
2023/05/01 09:53:42;;;;;;;1.97;1.83;;;18.20;60.50;;;;;;5050545;28;20454;-81
2023/05/01 09:57:05;;;;;;;2.30;2.10;;;19.40;59.10;;;;;;5032013;28;20950;-81
2023/05/01 10:00:19;;;;;;;2.20;2.10;;;20.20;57.70;;;;;;5028264;28;20995;-81
2023/05/01 10:03:39;;;;;;;;;;;;;;;;;;;;;
2023/05/01 10:07:27;;;;;;;3.87;2.90;;;21.40;55.60;;;;;;5048740;28;20845;-84
2023/05/01 10:10:37;;;;;;;2.73;2.53;;;21.90;54.30;;;;;;5049641;28;20470;-81
2023/05/01 10:13:30;;;;;;;2.13;2.03;;;22.50;52.80;;;;;;5051359;28;20440;-83
2023/05/01 10:16:46;;;;;;;2.63;2.43;;;23.00;51.70;;;;;;5051503;28;20443;-83
2023/05/01 10:19:36;;;;;;;3.03;2.57;;;23.80;50.00;;;;;;5056020;28;20475;-82
2023/05/01 10:23:02;;;;;;;1.90;1.80;;;24.30;48.50;;;;;;5049512;28;20511;-81
2023/05/01 10:26:15;;;;;;;2.10;2.00;;;23.90;47.50;;;;;;5018131;28;20463;-83
2023/05/01 10:29:30;;;;;;;;;;;;;;;;;;;;;
2023/05/01 10:32:19;;;;;;;2.07;1.87;;;24.80;45.80;;;;;;5009226;28;20464;-83
2023/05/01 10:35:45;;;;;;;2.27;1.93;;;25.40;44.70;;;;;;4999830;28;20429;-83
2023/05/01 10:46:14;;;;;;;2.47;1.90;;;26.70;42.10;;;;;;5003975;28;20474;-83
2023/05/01 10:48:59;;;;;;;1.97;1.87;;;26.70;41.70;;;;;;5014104;28;20545;-83
2023/05/01 10:52:06;;;;;;;1.67;1.57;;;27.30;41.20;;;;;;5008056;28;20455;-83
2023/05/01 10:54:57;;;;;;;2.27;2.00;;;28.00;39.90;;;;;;5002563;28;20584;-83
2023/05/01 10:58:29;;;;;;;2.10;2.00;;;28.00;39.70;;;;;;4955112;28;20450;-82
2023/05/01 11:01:54;;;;;;;1.90;1.80;;;28.20;39.00;;;;;;4961630;28;20449;-82
2023/05/01 11:04:55;;;;;;;2.27;1.90;;;27.70;39.00;;;;;;4934832;29;20602;-82
2023/05/01 11:08:12;;;;;;;1.70;1.60;;;27.10;39.50;;;;;;4934107;29;20457;-81
2023/05/01 11:12:10;;;;;;;1.80;1.70;;;26.40;40.00;;;;;;4887327;29;20431;-83
2023/05/01 11:19:01;;;;;;;1.50;1.40;;;25.90;40.60;;;;;;4991310;28;20974;-83
2023/05/01 11:22:13;;;;;;;1.87;1.70;;;25.60;41.10;;;;;;4977893;28;20990;-82
2023/05/01 11:25:48;;;;;;;1.60;1.50;;;25.30;41.30;;;;;;4961075;28;20486;-81
2023/05/01 11:28:41;;;;;;;1.40;1.30;;;25.40;40.70;;;;;;4977220;28;20483;-82
2023/05/01 11:32:08;;;;;;;2.50;1.90;;;24.90;40.60;;;;;;4897840;29;21422;-81
2023/05/01 11:39:00;;;;;;;;;;;;;;;;;;;;;
2023/05/01 11:42:16;;;;;;;1.63;1.40;;;24.20;42.00;;;;;;4995583;28;20427;-83
2023/05/01 11:45:40;;;;;;;2.33;1.70;;;24.10;42.20;;;;;;4897911;29;20510;-83
2023/05/01 11:48:50;;;;;;;2.77;1.80;;;24.00;42.30;;;;;;4900818;29;20492;-82
2023/05/01 11:51:51;;;;;;;1.77;1.67;;;24.30;42.70;;;;;;4948584;28;20455;-84
2023/05/01 11:55:15;;;;;;;1.90;1.50;;;24.00;42.20;;;;;;4980616;28;20600;-82
2023/05/01 11:58:19;;;;;;;1.70;1.60;;;23.50;42.70;;;;;;4940552;28;20440;-83
2023/05/01 12:01:30;;;;;;;2.00;1.90;;;23.00;43.30;;;;;;4953333;28;21122;-85
2023/05/01 12:04:40;;;;;;;1.50;1.40;;;22.70;43.70;;;;;;4962227;28;20629;-84
2023/05/01 12:07:50;;;;;;;1.70;1.60;;;23.10;43.70;;;;;;4951315;28;21190;-83
2023/05/01 12:11:10;;;;;;;1.43;1.30;;;23.00;43.90;;;;;;5012447;28;20489;-83
2023/05/01 12:14:10;;;;;;;1.40;1.30;;;22.90;43.90;;;;;;4996807;28;20534;-82
2023/05/01 12:17:03;;;;;;;1.70;1.60;;;22.80;44.10;;;;;;4991368;28;20433;-83
2023/05/01 12:20:11;;;;;;;1.53;1.43;;;22.80;44.10;;;;;;4949843;28;20488;-82
2023/05/01 12:23:58;;;;;;;1.90;1.80;;;22.50;45.00;;;;;;4958966;28;20428;-82
2023/05/01 12:27:08;;;;;;;1.70;1.50;;;22.50;45.20;;;;;;4929656;28;20444;-83
2023/05/01 12:30:09;;;;;;;1.60;1.50;;;22.40;46.20;;;;;;4952907;28;20516;-84
2023/05/01 12:33:42;;;;;;;1.60;1.50;;;22.10;46.20;;;;;;4966481;28;20496;-82
2023/05/01 12:36:17;;;;;;;2.70;2.40;;;22.30;46.00;;;;;;4982011;28;20458;-82
2023/05/01 12:39:40;;;;;;;1.50;1.40;;;22.50;45.40;;;;;;4991330;28;20462;-83
2023/05/01 12:42:21;;;;;;;2.63;1.33;;;22.60;45.10;;;;;;5002041;28;20970;-83
2023/05/01 12:45:14;;;;;;;1.60;1.50;;;22.50;45.10;;;;;;4981593;28;21150;-85
2023/05/01 12:52:00;;;;;;;1.70;1.60;;;22.70;44.40;;;;;;4991845;28;20455;-84
2023/05/01 12:55:11;;;;;;;2.53;1.83;;;22.90;44.60;;;;;;5015231;28;20482;-84
2023/05/01 12:58:02;;;;;;;;;;;;;;;;;;;;;
2023/05/01 13:01:08;;;;;;;1.90;1.33;;;24.50;41.50;;;;;;5050993;28;20476;-85
2023/05/01 13:03:51;;;;;;;1.23;1.13;;;24.50;39.50;;;;;;5062317;28;20468;-83
2023/05/01 13:07:18;;;;;;;1.40;1.30;;;24.60;39.60;;;;;;5060283;28;20532;-83
2023/05/01 13:10:04;;;;;;;2.40;2.20;;;24.90;40.70;;;;;;4976720;28;20498;-83
2023/05/01 13:16:48;;;;;;;1.73;1.63;;;23.60;41.80;;;;;;5032721;28;20470;-81
2023/05/01 13:20:15;;;;;;;1.53;1.43;;;23.50;42.20;;;;;;5029074;28;20432;-82
2023/05/01 13:26:48;;;;;;;1.10;1.07;;;24.40;39.90;;;;;;5040287;28;20497;-82
2023/05/01 13:36:51;;;;;;;1.77;1.40;;;24.40;40.30;;;;;;5061643;28;20510;-83
2023/05/01 13:40:07;;;;;;;1.10;1.07;;;23.90;40.30;;;;;;5049552;28;20464;-83
2023/05/01 13:43:19;;;;;;;1.17;1.10;;;23.70;40.60;;;;;;5040862;28;20444;-84
2023/05/01 13:46:49;;;;;;;1.33;1.23;;;24.30;39.70;;;;;;5050895;28;20441;-82
2023/05/01 13:55:01;;;;;;;1.77;1.60;;;24.20;39.30;;;;;;5018336;28;20577;-82
2023/05/01 13:57:42;;;;;;;1.30;1.20;;;23.70;39.80;;;;;;5015540;28;20522;-83
2023/05/01 14:04:37;;;;;;;2.70;2.50;;;22.70;45.70;;;;;;5011946;28;20425;-82
2023/05/01 14:07:58;;;;;;;2.33;2.13;;;21.90;49.30;;;;;;5011295;28;20437;-83
2023/05/01 14:11:26;;;;;;;2.37;2.17;;;21.50;50.60;;;;;;5000012;28;20853;-83
2023/05/01 14:14:52;;;;;;;2.40;2.20;;;21.40;51.50;;;;;;5013308;28;20480;-83
2023/05/01 14:21:26;;;;;;;2.50;2.30;;;21.10;53.80;;;;;;5007397;28;20443;-83
2023/05/01 14:24:52;;;;;;;2.00;1.90;;;20.80;56.40;;;;;;5004784;28;20442;-82
2023/05/01 14:31:59;;;;;;;2.10;2.00;;;20.50;58.30;;;;;;5003491;28;20478;-83
2023/05/01 14:34:58;;;;;;;;;;;;;;;;;;;;;
2023/05/01 14:38:11;;;;;;;2.10;2.00;;;20.20;59.80;;;;;;5009510;28;20497;-83
2023/05/01 14:41:28;;;;;;;;;;;;;;;;;;;;;
2023/05/01 14:44:39;;;;;;;;;;;;;;;;;;;;;
2023/05/01 14:51:43;;;;;;;1.67;1.57;;;19.30;59.90;;;;;;5012082;28;20460;-85
2023/05/01 14:55:05;;;;;;;2.00;1.73;;;19.10;65.40;;;;;;5031296;28;20497;-82
2023/05/01 14:57:50;;;;;;;2.60;2.40;;;18.80;70.50;;;;;;5033915;28;20470;-83
2023/05/01 15:01:14;;;;;;;2.50;2.30;;;18.60;71.60;;;;;;5029620;28;20484;-84
2023/05/01 15:04:46;;;;;;;3.23;2.20;;;18.40;74.60;;;;;;5005830;28;20521;-84
2023/05/01 15:07:51;;;;;;;2.80;2.50;;;18.40;76.70;;;;;;4977122;28;20520;-84
2023/05/01 15:11:19;;;;;;;2.20;2.07;;;18.40;78.60;;;;;;4921300;29;20620;-84
2023/05/01 15:14:36;;;;;;;;;;;;;;;;;;;;;
2023/05/01 15:17:37;;;;;;;3.43;3.13;;;18.40;83.40;;;;;;4938727;29;20468;-84
2023/05/01 15:21:12;;;;;;;3.20;2.63;;;18.40;85.90;;;;;;4938301;29;20644;-83
2023/05/01 15:24:00;;;;;;;3.63;3.33;;;18.50;89.50;;;;;;4937423;29;20937;-83
2023/05/01 15:26:50;;;;;;;3.23;2.93;;;18.40;89.10;;;;;;4934688;29;20454;-83
2023/05/01 15:30:03;;;;;;;4.00;3.00;;;18.40;89.10;;;;;;4950539;28;20569;-84
2023/05/01 15:32:54;;;;;;;3.37;3.17;;;18.40;88.70;;;;;;4937491;29;20458;-83
2023/05/01 15:35:35;;;;;;;3.63;3.30;;;18.50;89.20;;;;;;4918693;29;20908;-83
2023/05/01 15:38:10;;;;;;;2.73;2.60;;;18.50;89.50;;;;;;4934195;29;20470;-83
2023/05/01 15:40:45;;;;;;;5.57;4.60;;;18.50;88.90;;;;;;4938140;29;20476;-82
2023/05/01 15:43:22;;;;;;;3.13;2.93;;;18.70;86.70;;;;;;4935678;29;20450;-81
2023/05/01 15:45:58;;;;;;;2.90;2.70;;;18.50;86.60;;;;;;4952808;28;20447;-84
2023/05/01 15:48:32;;;;;;;2.87;2.67;;;18.40;87.00;;;;;;5008224;28;20537;-83
2023/05/01 15:51:12;;;;;;;3.73;3.43;;;18.40;87.20;;;;;;5015756;28;20446;-83
2023/05/01 15:54:03;;;;;;;3.10;2.90;;;18.40;87.90;;;;;;5013760;28;20442;-81
2023/05/01 15:56:46;;;;;;;2.90;2.70;;;18.40;88.70;;;;;;5009601;28;20486;-82
2023/05/01 15:59:58;;;;;;;3.00;2.80;;;18.40;88.30;;;;;;5024920;28;20980;-82
2023/05/01 16:02:46;;;;;;;4.23;3.03;;;18.50;88.70;;;;;;4990351;28;20462;-82
2023/05/01 16:05:51;;;;;;;3.83;3.50;;;18.50;86.80;;;;;;5029485;28;20473;-83
2023/05/01 16:08:44;;;;;;;;;;;;;;;;;;;;;
2023/05/01 16:11:21;;;;;;;3.20;2.90;;;18.30;86.80;;;;;;5024659;28;20442;-83
2023/05/01 16:13:57;;;;;;;4.37;3.30;;;18.20;86.90;;;;;;5012817;28;20465;-84
2023/05/01 16:16:52;;;;;;;;;;;;;;;;;;;;;
2023/05/01 16:19:31;;;;;;;3.33;3.03;;;18.30;90.30;;;;;;5018526;28;20512;-83